KLNK/LNK METAR and TAF weather

Enter ICAO airport designator
Station Type Date Time Source
KLNK METAR 2019/06/17 13:54 UTC NOAA

KLNK 171354Z 17005KT 10SM CLR 23/18 A2998 RMK AO2 SLP140 T02280178


Station Type Date Time Source
KLNK Decoded METAR 2019/06/17 13:54 UTC NOAA

LINCOLN MUNICIPAL AIRPORT, NE, United States (KLNK) 40-50N 96-46W 364M
Jun 17, 2019 - 09:54 AM EDT / 2019.06.17 1354 UTC
Wind: from the S (170 degrees) at 6 MPH (5 KT):0
Visibility: 10 mile(s):0
Sky conditions: clear
Temperature: 73.0 F (22.8 C)
Dew Point: 64.0 F (17.8 C)
Relative Humidity: 73%
Pressure (altimeter): 29.98 in. Hg (1015 hPa)
ob: KLNK 171354Z 17005KT 10SM CLR 23/18 A2998 RMK AO2 SLP140 T02280178
cycle: 14

Station Type Date Time Source
KLNK TAF 2019/06/17 12:46 UTC NOAA

TAF KLNK 171144Z 1712/1812 00000KT P6SM BKN120 BKN250
FM171400 VRB04KT P6SM VCSH OVC080
TEMPO 1717/1720 -SHRA OVC050
FM180000 11003KT P6SM BKN100

Example: see airport list